Flight Track Log - Related Links

Times and Time Zones

All times are in EDT time to prevent confusion due to time zone crossing. See the EJA982 flight status page for this flight to view local times or setup timezone preferences in your user account.

Time Position Orientation Groundspeed Altitude Reporting Facility
EDT Latitude Longitude Course Direction KTS MPH feet Rate Location/Type
Tue 07:08:22 PM 27.1703 -80.1861 117° Southeast 194 223 2,200  Level Miami Center
Tue 07:09:22 PM 27.1406 -80.1197 117° Southeast 227 261 4,100 1,350 Climbing Miami Center
Tue 07:10:22 PM 27.0958 -80.1489 210° Southwest 267 307 4,900 1,250 Climbing Miami Center
Tue 07:11:22 PM 27.1236 -80.2219 293° West 261 300 6,600 2,050 Climbing Miami Center
Tue 07:12:22 PM 27.1525 -80.3161 289° West 274 315 9,000 1,200 Climbing Miami Center
Tue 07:13:22 PM 27.1589 -80.4003 275° West 290 334 9,000  Level Miami Center
Tue 07:14:22 PM 27.1631 -80.4869 273° West 290 334 9,000 500 Level Miami Center
Tue 07:15:22 PM 27.1694 -80.5689 275° West 290 334 10,000 1,950 Climbing Miami Center
Tue 07:16:22 PM 27.1753 -80.6669 274° West 307 353 12,900 1,700 Climbing Miami Center
Tue 07:17:22 PM 27.1861 -80.8028 275° West 381 438 13,400 500 Climbing Miami Center
Tue 07:18:22 PM 27.2014 -80.9294 278° West 411 473 13,900 300 Climbing Miami Center
Tue 07:19:22 PM 27.2167 -81.0561 278° West 411 473 14,000 50 Climbing Miami Center
Tue 07:20:22 PM 27.2319 -81.1756 278° West 417 480 14,000  Level Miami Center
Tue 07:21:22 PM 27.2469 -81.3022 278° West 412 474 14,000 -50 Level Miami Center
Tue 07:22:22 PM 27.2653 -81.4431 278° West 412 474 13,900 -100 Descending Miami Center
Tue 07:23:22 PM 27.2803 -81.5675 278° West 412 474 13,800 -1,050 Descending Miami Center
Tue 07:24:22 PM 27.2933 -81.6781 278° West 396 456 11,800 -1,750 Descending Miami Center
Tue 07:25:22 PM 27.3028 -81.7694 277° West 351 404 10,300 -1,500 Descending Miami Center
Tue 07:26:22 PM 27.3144 -81.8564 279° West 316 364 8,800 -1,500 Descending Miami Center
Tue 07:27:22 PM 27.3258 -81.9408 279° West 284 327 7,300 -1,500 Descending Miami Center
Tue 07:28:22 PM 27.3353 -82.0303 277° West 284 327 5,800 -1,200 Descending Miami Center
Tue 07:29:22 PM 27.3492 -82.1103 281° West 278 320 4,900 -450 Descending Miami Center
Tue 07:30:22 PM 27.3711 -82.1931 287° West 272 313 4,900 -450 Level Miami Center
Tue 07:31:22 PM 27.3869 -82.2733 283° West 272 313 4,000 -1,200 Descending Miami Center
Tue 07:32:22 PM 27.4072 -82.3444 288° West 260 299 2,500 -750 Descending Miami Center
Tue 07:33:22 PM 27.4256 -82.4083 288° West 247 284 2,500 -141 Level Miami Center
Tue 07:33:47 PM 27.4333 -82.4500 282° West 236 272 2,300 -635 Descending Tampa TRACON
Tue 07:34:47 PM 27.4500 -82.5167 286° West 221 254 1,600 -650 Descending Tampa TRACON
Tue 07:35:47 PM 27.4500 -82.5833 270° West 200 230 1,000 -694 Descending Tampa TRACON
Tue 07:36:48 PM 27.4167 -82.5667 156° South 138 159 200 -787 Descending Tampa TRACON
Tue 07:38:00 PM 27.3954 -82.5544 156° South  Level Estimated
Tue 07:45:00 PM 27.3954 -82.5544 156° South  Level Estimated
Tue 07:46:00 PM 27.3954 -82.5544 156° South  Level Estimated

Login

Don't have an account? Register now (free) for customized features, flight alerts, and more!